Latest Weather Observations for Browse Island

IDW60801

Issued at 9:02 pm WST Saturday 18 April 2015 (issued every 30 minutes, with the page automatically refreshed every 10 minutes)

About weather observations | Map of weather stations | Latest weather observations for WA | Other Formats
Station Details ID: 200784 Name: BROWSE ISLAND Lat: -14.11 Lon: 123.55 Height: 3.7 m
Data from the previous 72 hours. | See also: Recent months for locations in Western Australia
Date/Time
WST
Temp
°C
App
Temp
°C
Dew
Point
Rel
Hum
%
Delta-T
°C
Wind Press
QNH
hPa
Press
MSL
hPa
Rain
since 9 am
mm
Dir
 
Spd
km/h
Gust
km/h
Spd
kts
Gust
kts
18/09:00pm 29.3 - - - - E 13 17 7 9 1011.0 1011.8 -
18/08:30pm 29.0 - - - - E 13 13 7 7 1011.0 - -
18/08:00pm 29.3 - - - - E 13 - 7 - 1011.0 1011.5 -
18/07:30pm 29.0 - - - - E 15 - 8 - 1011.0 - -
18/07:00pm 29.2 - - - - ESE 15 - 8 - 1010.0 1010.6 -
18/06:30pm 29.0 - - - - SE 15 - 8 - 1010.0 - -
18/06:00pm 29.2 - - - - ESE 13 13 7 7 1010.0 1010.1 -
18/05:30pm 29.0 - - - - SE 13 - 7 - 1009.0 - -
18/05:00pm 29.6 - - - - ESE 13 - 7 - 1009.0 1009.5 -
18/04:30pm 30.0 - - - - ESE 13 - 7 - 1009.0 - -
18/04:00pm 29.7 - - - - ESE 11 - 6 - 1009.0 1009.3 -
18/03:30pm 30.0 - - - - SE 13 - 7 - 1009.0 - -
18/03:00pm 30.3 - - - - SE 13 - 7 - 1009.0 1009.2 -
18/02:30pm 31.0 - - - - ESE 13 - 7 - 1009.0 - -
18/02:00pm 30.9 - - - - ESE 13 - 7 - 1009.0 1009.4 -
18/01:30pm 30.0 - - - - ESE 15 - 8 - 1009.0 - -
18/01:00pm 31.0 - - - - ESE 13 - 7 - 1009.0 1009.8 -
18/12:30pm 31.0 - - - - E 13 - 7 - 1010.0 - -
18/12:00pm 30.7 - - - - E 11 - 6 - 1010.0 1010.5 -
18/11:30am 30.0 - - - - ESE 13 - 7 - 1011.0 - -
18/11:00am 30.6 - - - - ESE 13 - 7 - 1011.0 1011.2 -
18/10:30am 30.0 - - - - ESE 13 - 7 - 1011.0 - -
18/10:00am 29.8 - - - - ESE 15 - 8 - 1011.0 1011.8 -
18/09:30am 30.0 - - - - ESE 17 - 9 - 1012.0 - -
18/09:00am 29.5 - - - - ESE 17 - 9 - 1012.0 1012.1 -
18/08:30am 30.0 - - - - ESE 15 - 8 - 1012.0 - -
18/08:00am 30.0 - - - - ESE 13 13 7 7 1011.0 1011.7 -
18/07:30am 30.0 - - - - ESE 15 - 8 - 1011.0 - -
18/07:00am 29.3 - - - - ESE 17 - 9 - 1011.0 1011.4 -
18/06:30am 29.0 - - - - E 17 - 9 - 1011.0 - -
18/06:00am 29.1 - - - - ESE 15 19 8 10 1011.0 1011.0 -
18/05:30am 29.0 - - - - ESE 15 - 8 - 1010.0 - -
18/05:00am 28.9 - - - - ESE 15 - 8 - 1010.0 1010.6 -
18/04:30am 29.0 - - - - ESE 11 - 6 - 1010.0 - -
18/04:00am 29.0 - - - - ESE 11 - 6 - 1010.0 1010.1 -
18/03:30am 29.0 - - - - SE 11 - 6 - 1010.0 - -
18/03:00am 29.2 - - - - E 7 - 4 - 1010.0 1010.1 -
18/02:30am 29.0 - - - - E 7 - 4 - 1010.0 - -
18/02:00am 29.2 - - - - NE 6 - 3 - 1010.0 1010.0 -
18/01:30am 29.0 - - - - ENE 11 - 6 - 1010.0 - -
18/01:00am 29.6 - - - - NE 7 - 4 - 1010.0 1010.6 -
18/12:30am 30.0 - - - - NE 9 - 5 - 1011.0 - -
18/12:00am 29.4 - - - - NNE 11 13 6 7 1011.0 1011.2 -
 
Date/Time
WST
Temp
°C
App
Temp
°C
Dew
Point
Rel
Hum
%
Delta-T
°C
Wind Press
QNH
hPa
Press
MSL
hPa
Rain
since 9 am
mm
Dir
 
Spd
km/h
Gust
km/h
Spd
kts
Gust
kts
17/11:30pm 30.0 - - - - N 13 - 7 - 1011.0 - -
17/11:00pm 29.5 - - - - NNE 13 - 7 - 1011.0 1011.6 -
17/10:30pm 30.0 - - - - NNE 11 - 6 - 1012.0 - -
17/10:00pm 29.6 - - - - NNE 9 - 5 - 1012.0 1012.2 -
17/09:30pm 30.0 - - - - NE 11 - 6 - 1012.0 - -
17/09:00pm 29.4 - - - - NE 9 - 5 - 1012.0 1012.2 -
17/08:30pm 30.0 - - - - NNE 13 - 7 - 1012.0 - -
17/08:00pm 29.7 - - - - N 15 - 8 - 1011.0 1011.5 -
17/07:30pm 30.0 - - - - NNE 13 - 7 - 1011.0 - -
17/07:00pm 29.6 - - - - NNE 13 - 7 - 1010.0 1010.4 -
17/06:30pm 30.0 - - - - NNE 13 - 7 - 1010.0 - -
17/06:00pm 29.7 - - - - NNE 11 - 6 - 1010.0 1010.0 -
17/05:30pm 30.0 - - - - NNE 11 - 6 - 1009.0 - -
17/05:00pm 29.9 - - - - NE 11 - 6 - 1009.0 1009.6 -
17/04:30pm 30.0 - - - - ENE 9 - 5 - 1009.0 - -
17/04:00pm 30.6 - - - - ENE 11 - 6 - 1009.0 1009.3 -
17/03:30pm 31.0 - - - - E 11 - 6 - 1009.0 - -
17/03:00pm 30.7 - - - - ESE 13 - 7 - 1009.0 1009.3 -
17/02:30pm 31.0 - - - - ESE 13 - 7 - 1009.0 - -
17/02:00pm 31.1 - - - - ESE 13 - 7 - 1009.0 1009.6 -
17/01:30pm 32.0 - - - - ESE 13 - 7 - 1009.0 - -
17/01:00pm 31.3 - - - - SE 11 - 6 - 1010.0 1010.1 -
17/12:30pm 31.0 - - - - S 9 - 5 - 1010.0 - -
17/12:00pm 30.9 - - - - SSE 9 - 5 - 1011.0 1010.9 -
17/11:30am 30.0 - - - - SE 11 - 6 - 1011.0 - -
17/11:00am 29.9 - - - - SE 13 - 7 - 1011.0 1011.6 -
17/10:30am 30.0 - - - - SE 13 - 7 - 1012.0 - -
17/10:00am 29.9 - - - - SE 13 - 7 - 1012.0 1012.4 -
17/09:30am 30.0 - - - - SE 13 - 7 - 1012.0 - -
17/09:00am 29.7 - - - - ESE 15 - 8 - 1012.0 1012.4 -
17/08:30am 30.0 - - - - E 13 - 7 - 1012.0 - -
17/08:00am 28.8 - - - - SE 26 - 14 - 1012.0 1012.3 -
17/07:30am 28.0 - - - - SE 30 - 16 - 1012.0 - -
17/07:00am 28.4 - - - - SSE 28 - 15 - 1012.0 1012.6 -
17/06:30am 28.0 - - - - SSE 35 - 19 - 1012.0 - -
17/06:00am 28.4 - - - - SSE 37 - 20 - 1012.0 1012.4 -
17/05:30am 30.0 - - - - SSE 30 - 16 - 1012.0 - -
17/05:00am 29.0 - - - - SSE 19 - 10 - 1012.0 1012.2 -
17/04:30am 29.0 - - - - SSE 13 - 7 - 1012.0 - -
17/04:00am 29.0 - - - - SSE 9 - 5 - 1011.0 1011.6 -
17/03:30am 29.0 - - - - SSE 6 - 3 - 1011.0 - -
17/03:00am 28.8 - - - - SE 9 - 5 - 1011.0 1011.6 -
17/02:30am 29.0 - - - - ESE 7 - 4 - 1011.0 - -
17/02:00am 28.8 - - - - E 9 - 5 - 1011.0 1011.8 -
17/01:30am 29.0 - - - - E 7 - 4 - 1012.0 - -
17/01:00am 29.1 - - - - ESE 7 - 4 - 1012.0 1012.5 -
17/12:30am 29.0 - - - - E 6 - 3 - 1013.0 - -
17/12:00am 29.0 - - - - CALM 0 - 0 - 1013.0 1013.4 -
 
Date/Time
WST
Temp
°C
App
Temp
°C
Dew
Point
Rel
Hum
%
Delta-T
°C
Wind Press
QNH
hPa
Press
MSL
hPa
Rain
since 9 am
mm
Dir
 
Spd
km/h
Gust
km/h
Spd
kts
Gust
kts
16/11:30pm 29.0 - - - - CALM 0 - 0 - 1013.0 - -
16/11:00pm 29.2 - - - - N 4 - 2 - 1013.0 1013.7 -
16/10:30pm 29.0 - - - - N 7 - 4 - 1014.0 - -
16/10:00pm 29.3 - - - - N 7 - 4 - 1014.0 1014.1 -
16/09:30pm 30.0 - - - - N 7 - 4 - 1014.0 - -
16/09:00pm 29.8 - - - - N 11 - 6 - 1014.0 1014.2 -
16/08:30pm 30.0 - - - - N 9 - 5 - 1014.0 - -
16/08:00pm 29.7 - - - - NNE 7 - 4 - 1014.0 1014.0 -
16/07:30pm 30.0 - - - - N 6 - 3 - 1013.0 - -
16/07:00pm 29.9 - - - - NE 6 - 3 - 1013.0 1013.4 -
16/06:30pm 30.0 - - - - ENE 2 - 1 - 1013.0 - -
16/06:00pm 29.8 - - - - E 6 - 3 - 1012.0 1012.6 -
16/05:30pm 30.0 - - - - ESE 7 - 4 - 1012.0 - -
16/05:00pm 30.3 - - - - SE 9 - 5 - 1011.0 1011.7 -
16/04:30pm 30.0 - - - - ESE 11 - 6 - 1011.0 - -
16/04:00pm 30.6 - - - - ESE 11 - 6 - 1011.0 1011.5 -
16/03:30pm 31.0 - - - - ESE 13 - 7 - 1011.0 - -
16/03:00pm 30.6 - - - - E 13 - 7 - 1011.0 1011.5 -
16/02:30pm 31.0 - - - - ESE 17 - 9 - 1011.0 - -
16/02:00pm 31.1 - - - - ESE 19 - 10 - 1011.0 1011.4 -
16/01:30pm 31.0 - - - - ESE 17 - 9 - 1011.0 - -
16/01:00pm 30.9 - - - - ESE 19 - 10 - 1012.0 1012.0 -
16/12:30pm 31.0 - - - - ESE 19 - 10 - 1012.0 - -
16/12:00pm 30.6 - - - - ESE 17 - 9 - 1012.0 1012.5 -
16/11:30am 31.0 - - - - ESE 17 - 9 - 1013.0 - -
16/11:00am 31.1 - - - - ESE 15 - 8 - 1013.0 1013.4 -
16/10:30am 31.0 - - - - SE 17 - 9 - 1014.0 - -
16/10:00am 31.0 - - - - SE 17 - 9 - 1014.0 1014.5 -
16/09:30am 30.0 - - - - SE 17 - 9 - 1014.0 - -
16/09:00am 30.6 - - - - SE 19 - 10 - 1015.0 1014.9 -
16/08:30am 30.0 - - - - SE 17 - 9 - 1014.0 - -
16/08:00am 29.7 - - - - SE 15 - 8 - 1014.0 1014.4 -
16/07:30am 29.0 - - - - SSE 15 - 8 - 1014.0 - -
16/07:00am 29.3 - - - - SE 15 - 8 - 1014.0 1014.0 -
16/06:30am 29.0 - - - - SE 13 - 7 - 1014.0 - -
16/06:00am 29.1 - - - - SE 11 - 6 - 1013.0 1013.6 -
16/05:30am 29.0 - - - - SE 9 - 5 - 1013.0 - -
16/05:00am 29.0 - - - - SSE 7 - 4 - 1013.0 1013.1 -
16/04:30am 29.0 - - - - SE 9 - 5 - 1013.0 - -
16/04:00am 29.2 - - - - ESE 6 - 3 - 1013.0 1012.9 -
16/03:30am 29.0 - - - - SE 7 - 4 - 1013.0 - -
16/03:00am 29.3 - - - - ESE 7 - 4 - 1013.0 1013.0 -
16/02:30am 29.0 - - - - SE 7 - 4 - 1013.0 - -
16/02:00am 29.4 - - - - ESE 7 - 4 - 1013.0 1013.1 -
16/01:30am 29.0 - - - - E 7 - 4 - 1013.0 - -
16/01:00am 29.4 - - - - E 9 - 5 - 1013.0 1013.1 -
16/12:30am 29.0 - - - - E 6 - 3 - 1013.0 - -
16/12:00am 29.5 - - - - ESE 7 - 4 - 1013.0 1013.8 -
 
Date/Time
WST
Temp
°C
App
Temp
°C
Dew
Point
Rel
Hum
%
Delta-T
°C
Wind Press
QNH
hPa
Press
MSL
hPa
Rain
since 9 am
mm
Dir
 
Spd
km/h
Gust
km/h
Spd
kts
Gust
kts
15/11:30pm 30.0 - - - - SE 9 - 5 - 1014.0 - -
15/11:00pm 29.5 - - - - SSE 9 - 5 - 1014.0 1014.3 -
15/10:30pm 30.0 - - - - SE 9 - 5 - 1014.0 - -
15/10:00pm 29.7 - - - - CALM 0 - 0 - 1014.0 1014.4 -
15/09:30pm 30.0 - - - - CALM 0 - 0 - 1014.0 - -

Other Formats:

Comma delimited format used in spreadsheet applications
http://www.bom.gov.au/fwo/IDW60801/IDW60801.94103.axf

JavaScript Object Notation format (JSON) in row-major order
http://www.bom.gov.au/fwo/IDW60801/IDW60801.94103.json